Time;durP1;ratioP1;P1;durP2;ratioP2;P2;SDS_P1;SDS_P2;PMS_P1;PMS_P2;Temp;Humidity;BMP_temperature;BMP_pressure;BME280_temperature;BME280_humidity;BME280_pressure;Samples;Min_cycle;Max_cycle;Signal;HPM_P1;HPM_P2
2021/10/03 00:00:21;;;;;;;10.93;8.35;;;11.10;99.90;;;;;;5062626;28;20248;-47
2021/10/03 00:02:51;;;;;;;10.75;8.43;;;11.10;99.90;;;;;;5072822;28;20237;-44
2021/10/03 00:05:20;;;;;;;8.73;7.82;;;11.00;99.90;;;;;;5070054;28;20202;-50
2021/10/03 00:07:51;;;;;;;9.80;8.63;;;10.90;99.90;;;;;;5064054;28;20205;-48
2021/10/03 00:10:20;;;;;;;11.32;9.38;;;10.80;99.90;;;;;;5078269;28;21209;-46
2021/10/03 00:12:48;;;;;;;12.57;9.00;;;10.80;99.90;;;;;;5067047;28;20247;-46
2021/10/03 00:15:17;;;;;;;9.48;7.72;;;10.70;99.90;;;;;;5066529;28;20198;-47
2021/10/03 00:17:45;;;;;;;13.18;8.40;;;10.60;99.90;;;;;;5073470;28;20236;-51
2021/10/03 00:20:13;;;;;;;22.30;8.30;;;10.70;99.90;;;;;;5064286;28;20509;-53
2021/10/03 00:22:40;;;;;;;10.40;8.23;;;10.70;99.90;;;;;;5075245;28;20275;-49
2021/10/03 00:25:13;;;;;;;8.55;7.65;;;10.70;99.90;;;;;;5074124;28;20216;-50
2021/10/03 00:27:44;;;;;;;9.15;7.65;;;10.80;99.90;;;;;;5067094;28;20206;-51
2021/10/03 00:30:14;;;;;;;9.80;8.80;;;10.90;99.90;;;;;;5063910;28;20226;-49
2021/10/03 00:32:42;;;;;;;7.13;6.18;;;11.00;99.90;;;;;;5079685;28;20256;-50
2021/10/03 00:35:10;;;;;;;10.27;8.65;;;11.00;99.90;;;;;;5074029;28;20401;-47
2021/10/03 00:37:37;;;;;;;8.95;8.10;;;10.90;99.90;;;;;;5066789;28;20197;-46
2021/10/03 00:40:06;;;;;;;8.10;7.30;;;10.90;99.90;;;;;;5063337;28;20213;-47
2021/10/03 00:42:34;;;;;;;8.98;7.35;;;10.80;99.90;;;;;;5071887;28;20268;-48
2021/10/03 00:45:02;;;;;;;10.18;7.28;;;10.80;99.90;;;;;;5078059;28;20517;-49
2021/10/03 00:47:29;;;;;;;18.80;8.38;;;10.80;99.90;;;;;;5066954;28;20540;-50
2021/10/03 00:49:57;;;;;;;10.40;8.45;;;10.70;99.90;;;;;;5060217;28;20228;-45
2021/10/03 00:52:24;;;;;;;9.93;7.90;;;10.80;99.90;;;;;;5063776;28;20446;-47
2021/10/03 00:54:52;;;;;;;9.98;7.72;;;10.70;99.90;;;;;;5078579;28;20200;-49
2021/10/03 00:57:19;;;;;;;9.82;7.93;;;10.60;99.90;;;;;;5070141;28;20198;-52
2021/10/03 00:59:47;;;;;;;8.98;8.07;;;10.50;99.90;;;;;;5065099;28;20237;-50
2021/10/03 01:02:14;;;;;;;13.30;8.68;;;10.50;99.90;;;;;;5074004;28;20224;-46
2021/10/03 01:04:42;;;;;;;9.88;8.18;;;10.40;99.90;;;;;;5066687;28;20214;-51
2021/10/03 01:07:09;;;;;;;11.20;8.13;;;10.50;99.90;;;;;;5065211;28;20209;-49
2021/10/03 01:09:37;;;;;;;9.57;8.05;;;10.50;99.90;;;;;;5073456;28;20203;-50
2021/10/03 01:12:04;;;;;;;10.93;8.75;;;10.40;99.90;;;;;;5076616;28;20375;-45
2021/10/03 01:14:31;;;;;;;11.10;7.55;;;10.30;99.90;;;;;;5080556;28;20198;-51
2021/10/03 01:16:58;;;;;;;14.45;7.97;;;10.20;99.90;;;;;;5080251;28;20198;-49
2021/10/03 01:19:26;;;;;;;12.23;9.05;;;10.30;99.90;;;;;;5068763;28;20307;-47
2021/10/03 01:21:53;;;;;;;11.45;8.63;;;10.20;99.90;;;;;;5078087;28;20220;-43
2021/10/03 01:24:20;;;;;;;8.32;7.53;;;10.20;99.90;;;;;;5063369;28;20373;-50
2021/10/03 01:26:47;;;;;;;9.02;8.07;;;10.20;99.90;;;;;;5065744;28;20212;-50
2021/10/03 01:29:14;;;;;;;10.32;8.90;;;10.20;99.90;;;;;;5079388;28;20212;-48
2021/10/03 01:31:41;;;;;;;12.63;8.18;;;10.20;99.90;;;;;;5069325;28;20233;-52
2021/10/03 01:34:08;;;;;;;12.25;8.57;;;10.30;99.90;;;;;;5066408;28;20233;-43
2021/10/03 01:36:36;;;;;;;9.95;8.23;;;10.20;99.90;;;;;;5060373;28;20197;-45
2021/10/03 01:39:04;;;;;;;9.45;8.43;;;10.20;99.90;;;;;;5067515;28;20354;-47
2021/10/03 01:41:31;;;;;;;11.07;9.60;;;10.10;99.90;;;;;;5071667;28;20199;-47
2021/10/03 01:44:00;;;;;;;11.60;8.55;;;10.10;99.90;;;;;;5065137;28;20201;-45
2021/10/03 01:46:27;;;;;;;13.85;9.80;;;9.90;99.90;;;;;;5062360;28;20238;-51
2021/10/03 01:48:54;;;;;;;9.35;8.35;;;9.90;99.90;;;;;;5060001;28;20201;-50
2021/10/03 01:51:22;;;;;;;10.30;8.75;;;10.00;99.90;;;;;;5075800;28;20220;-47
2021/10/03 01:53:53;;;;;;;12.30;8.73;;;10.00;99.90;;;;;;5066494;28;20234;-50
2021/10/03 01:56:22;;;;;;;9.80;8.45;;;10.00;99.90;;;;;;5072328;28;20227;-48
2021/10/03 01:58:58;;;;;;;9.88;7.65;;;10.00;99.90;;;;;;5068301;28;20426;-51
2021/10/03 02:01:36;;;;;;;9.95;8.95;;;9.90;99.90;;;;;;5062463;28;20207;-46
2021/10/03 02:04:06;;;;;;;14.45;9.25;;;9.90;99.90;;;;;;5072587;28;20239;-43
2021/10/03 02:06:41;;;;;;;10.82;8.55;;;9.90;99.90;;;;;;5062016;28;20201;-45
2021/10/03 02:09:09;;;;;;;10.40;9.30;;;9.80;99.90;;;;;;5070489;28;20212;-47
2021/10/03 02:11:41;;;;;;;12.40;9.40;;;9.80;99.90;;;;;;5073721;28;20369;-50
2021/10/03 02:14:09;;;;;;;11.60;9.05;;;9.80;99.90;;;;;;5068427;28;20444;-45
2021/10/03 02:16:37;;;;;;;9.82;8.23;;;9.80;99.90;;;;;;5065824;28;20565;-46
2021/10/03 02:19:05;;;;;;;9.85;8.80;;;9.80;99.90;;;;;;5071989;28;20201;-45
2021/10/03 02:21:34;;;;;;;11.30;8.30;;;10.00;99.90;;;;;;5060056;28;20201;-46
2021/10/03 02:24:02;;;;;;;10.65;9.07;;;9.90;99.90;;;;;;5076258;28;20455;-50
2021/10/03 02:26:29;;;;;;;14.32;8.90;;;9.90;99.90;;;;;;5067462;28;20245;-45
2021/10/03 02:28:56;;;;;;;9.48;8.48;;;10.00;99.90;;;;;;5073447;28;20201;-51
2021/10/03 02:31:23;;;;;;;12.25;9.73;;;10.00;99.90;;;;;;5070346;28;20219;-48
2021/10/03 02:33:51;;;;;;;15.55;10.05;;;9.70;99.90;;;;;;5065246;28;20491;-45
2021/10/03 02:36:22;;;;;;;11.90;8.55;;;9.70;99.90;;;;;;5065821;28;20197;-48
2021/10/03 02:38:50;;;;;;;11.45;9.25;;;9.60;99.90;;;;;;5061419;28;20189;-46
2021/10/03 02:41:18;;;;;;;11.95;9.20;;;9.60;99.90;;;;;;5065237;28;20255;-47
2021/10/03 02:43:50;;;;;;;10.95;8.50;;;9.50;99.90;;;;;;5060266;28;20211;-49
2021/10/03 02:46:19;;;;;;;10.52;9.43;;;9.40;99.90;;;;;;5072196;28;20208;-49
2021/10/03 02:48:50;;;;;;;12.57;10.05;;;9.40;99.90;;;;;;5059679;28;20199;-51
2021/10/03 02:51:23;;;;;;;11.60;9.18;;;9.40;99.90;;;;;;5072332;28;20220;-47
2021/10/03 02:53:52;;;;;;;11.20;8.68;;;9.40;99.90;;;;;;5073028;28;20425;-51
2021/10/03 02:56:21;;;;;;;10.50;9.43;;;9.30;99.90;;;;;;5059171;28;20217;-46
2021/10/03 02:58:49;;;;;;;10.57;9.57;;;9.20;99.90;;;;;;5072116;28;20250;-50
2021/10/03 03:01:17;;;;;;;11.75;9.60;;;9.10;99.90;;;;;;5062198;28;20201;-47
2021/10/03 03:03:45;;;;;;;10.30;8.60;;;9.10;99.90;;;;;;5071900;28;20219;-48
2021/10/03 03:06:13;;;;;;;15.18;8.95;;;9.10;99.90;;;;;;5061407;28;20298;-45
2021/10/03 03:08:41;;;;;;;19.60;9.90;;;9.10;99.90;;;;;;5069852;28;20517;-47
2021/10/03 03:11:09;;;;;;;9.00;7.68;;;9.20;99.90;;;;;;5059947;28;20266;-46
2021/10/03 03:13:36;;;;;;;9.85;8.77;;;9.20;99.90;;;;;;5064890;28;20228;-46
2021/10/03 03:16:04;;;;;;;7.88;7.07;;;9.10;99.90;;;;;;5070973;28;20216;-45
2021/10/03 03:18:32;;;;;;;15.60;9.10;;;9.20;99.90;;;;;;5078370;28;20196;-44
2021/10/03 03:20:59;;;;;;;16.92;9.75;;;9.10;99.90;;;;;;5071072;28;20206;-44
2021/10/03 03:23:27;;;;;;;12.48;9.45;;;9.10;99.90;;;;;;5066163;28;20219;-48
2021/10/03 03:25:54;;;;;;;14.20;10.80;;;9.20;99.90;;;;;;5073412;28;20204;-55
2021/10/03 03:28:21;;;;;;;10.80;9.70;;;9.20;99.90;;;;;;5064307;28;20433;-48
2021/10/03 03:30:48;;;;;;;10.02;8.35;;;9.20;99.90;;;;;;5076826;28;20219;-47
2021/10/03 03:33:16;;;;;;;9.90;8.38;;;9.20;99.90;;;;;;5073917;28;20215;-47
2021/10/03 03:35:43;;;;;;;11.18;8.00;;;9.20;99.90;;;;;;5082536;28;20199;-46
2021/10/03 03:38:11;;;;;;;9.02;8.15;;;9.20;99.90;;;;;;5078307;28;20199;-45
2021/10/03 03:40:39;;;;;;;10.00;8.38;;;9.20;99.90;;;;;;5079716;28;20499;-48
2021/10/03 03:43:06;;;;;;;9.27;8.35;;;9.20;99.90;;;;;;5071490;28;20227;-50
2021/10/03 03:45:33;;;;;;;9.85;7.55;;;9.30;99.90;;;;;;5065445;28;20254;-43
2021/10/03 03:48:01;;;;;;;13.02;8.60;;;9.30;99.90;;;;;;5069388;28;20208;-47
2021/10/03 03:50:31;;;;;;;7.50;6.80;;;9.20;99.90;;;;;;5063071;28;20206;-49
2021/10/03 03:52:59;;;;;;;11.25;8.02;;;9.20;99.90;;;;;;5069478;28;20216;-48
2021/10/03 03:55:27;;;;;;;7.82;6.97;;;9.20;99.90;;;;;;5069316;28;20235;-47
2021/10/03 03:57:54;;;;;;;8.57;7.40;;;9.20;99.90;;;;;;5070008;28;20536;-49
2021/10/03 04:00:21;;;;;;;8.05;7.25;;;9.20;99.90;;;;;;5072719;28;20525;-51
2021/10/03 04:02:49;;;;;;;9.02;6.43;;;9.20;99.90;;;;;;5077954;28;20265;-46
2021/10/03 04:05:16;;;;;;;8.85;7.43;;;9.20;99.90;;;;;;5078827;28;20202;-48
2021/10/03 04:07:43;;;;;;;10.98;8.52;;;9.20;99.90;;;;;;5070191;28;20434;-47
2021/10/03 04:10:10;;;;;;;10.38;7.70;;;9.20;99.90;;;;;;5077489;28;20527;-49
2021/10/03 04:12:37;;;;;;;7.28;6.53;;;9.30;99.90;;;;;;5065915;28;20247;-47
2021/10/03 04:15:07;;;;;;;10.10;7.47;;;9.30;99.90;;;;;;5075387;28;20568;-49
2021/10/03 04:17:36;;;;;;;7.45;6.57;;;9.20;99.90;;;;;;5065676;28;20242;-47
2021/10/03 04:20:05;;;;;;;8.80;8.02;;;9.20;99.90;;;;;;5073324;28;20253;-50
2021/10/03 04:22:33;;;;;;;9.45;8.45;;;9.20;99.90;;;;;;5061216;28;20461;-45
2021/10/03 04:25:00;;;;;;;13.63;9.23;;;9.20;99.90;;;;;;5066894;28;20202;-44
2021/10/03 04:27:27;;;;;;;10.15;8.13;;;9.20;99.90;;;;;;5076994;28;20205;-51
2021/10/03 04:29:55;;;;;;;7.90;7.13;;;9.20;99.90;;;;;;5065612;28;20200;-47
2021/10/03 04:32:22;;;;;;;10.77;8.82;;;9.20;99.90;;;;;;5075964;28;20527;-48
2021/10/03 04:34:49;;;;;;;10.38;7.43;;;9.20;99.90;;;;;;5064865;28;20196;-47
2021/10/03 04:37:16;;;;;;;8.00;7.20;;;9.20;99.90;;;;;;5075379;28;20196;-50
2021/10/03 04:39:44;;;;;;;8.07;7.28;;;9.30;99.90;;;;;;5061355;28;20196;-47
2021/10/03 04:42:11;;;;;;;10.05;7.15;;;9.30;99.90;;;;;;5067578;28;20269;-45
2021/10/03 04:44:38;;;;;;;8.13;7.32;;;9.30;99.90;;;;;;5074719;28;20199;-47
2021/10/03 04:47:05;;;;;;;9.30;8.02;;;9.30;99.90;;;;;;5066818;28;20391;-53
2021/10/03 04:49:33;;;;;;;7.43;6.68;;;9.40;99.90;;;;;;5062346;28;20247;-47
2021/10/03 04:52:00;;;;;;;8.20;6.90;;;9.40;99.90;;;;;;5060598;28;20229;-50
2021/10/03 04:54:27;;;;;;;7.88;6.50;;;9.40;99.90;;;;;;5074989;28;20197;-47
2021/10/03 04:56:54;;;;;;;10.00;7.35;;;9.30;99.90;;;;;;5072189;28;20196;-48
2021/10/03 04:59:21;;;;;;;9.15;7.07;;;9.50;99.90;;;;;;5066592;28;20584;-47
2021/10/03 05:01:48;;;;;;;10.20;7.22;;;9.60;99.90;;;;;;5076337;28;20220;-48
2021/10/03 05:04:16;;;;;;;7.32;6.45;;;9.60;99.90;;;;;;5070836;28;20268;-54
2021/10/03 05:06:43;;;;;;;8.20;6.88;;;9.50;99.90;;;;;;5076592;28;20254;-45
2021/10/03 05:09:10;;;;;;;8.02;7.22;;;9.50;99.90;;;;;;5073425;28;20211;-49
2021/10/03 05:11:37;;;;;;;7.65;6.85;;;9.50;99.90;;;;;;5072326;28;20216;-44
2021/10/03 05:14:08;;;;;;;5.70;5.15;;;9.60;99.90;;;;;;5071378;28;20212;-48
2021/10/03 05:16:36;;;;;;;7.20;5.85;;;9.70;99.90;;;;;;5062483;28;20197;-53
2021/10/03 05:19:04;;;;;;;6.82;6.22;;;9.70;99.90;;;;;;5070513;28;20395;-45
2021/10/03 05:21:31;;;;;;;7.43;6.72;;;9.70;99.90;;;;;;5078339;28;20201;-45
2021/10/03 05:23:59;;;;;;;7.70;6.90;;;9.80;99.90;;;;;;5067267;28;20201;-44
2021/10/03 05:26:26;;;;;;;9.25;6.75;;;9.80;99.90;;;;;;5068344;28;20200;-51
2021/10/03 05:28:54;;;;;;;8.05;7.15;;;9.90;99.90;;;;;;5066484;28;20286;-54
2021/10/03 05:31:21;;;;;;;7.57;6.70;;;10.00;99.90;;;;;;5067158;28;20540;-51
2021/10/03 05:33:48;;;;;;;7.10;6.40;;;10.10;99.90;;;;;;5062872;28;20209;-49
2021/10/03 05:36:15;;;;;;;8.93;6.65;;;10.20;99.90;;;;;;5069035;28;20225;-49
2021/10/03 05:38:43;;;;;;;6.72;6.10;;;10.30;99.90;;;;;;5065143;28;20205;-42
2021/10/03 05:41:11;;;;;;;7.60;6.65;;;10.40;99.90;;;;;;5067748;28;20238;-48
2021/10/03 05:43:38;;;;;;;7.05;6.35;;;10.50;99.90;;;;;;5066626;28;20410;-46
2021/10/03 05:46:10;;;;;;;8.85;6.07;;;10.60;99.90;;;;;;5060276;28;20202;-46
2021/10/03 05:48:37;;;;;;;6.80;6.18;;;10.80;99.90;;;;;;5073502;28;20265;-47
2021/10/03 05:51:04;;;;;;;7.07;6.18;;;10.90;99.90;;;;;;5060973;28;20201;-48
2021/10/03 05:53:31;;;;;;;8.10;6.28;;;11.00;99.90;;;;;;5065758;28;20218;-49
2021/10/03 05:55:58;;;;;;;8.68;7.00;;;11.10;99.90;;;;;;5062741;28;20235;-48
2021/10/03 05:58:25;;;;;;;13.27;6.60;;;11.20;99.90;;;;;;5065587;28;20195;-44
2021/10/03 06:00:53;;;;;;;8.32;7.63;;;11.20;99.90;;;;;;5061453;28;20210;-47
2021/10/03 06:03:20;;;;;;;10.98;7.60;;;11.30;99.90;;;;;;5073965;28;20298;-47
2021/10/03 06:05:48;;;;;;;6.13;5.53;;;11.40;99.90;;;;;;5070078;28;20196;-49
2021/10/03 06:08:15;;;;;;;7.43;6.30;;;11.50;99.90;;;;;;5071196;28;20191;-50
2021/10/03 06:10:44;;;;;;;10.57;6.40;;;11.90;99.90;;;;;;5073603;28;20439;-45
2021/10/03 06:13:12;;;;;;;7.13;5.93;;;12.20;99.90;;;;;;5060200;28;20271;-45
2021/10/03 06:15:43;;;;;;;9.82;6.38;;;12.50;99.90;;;;;;5073000;28;20416;-46
2021/10/03 06:18:11;;;;;;;11.07;7.47;;;12.70;99.90;;;;;;5069469;28;20208;-49
2021/10/03 06:20:40;;;;;;;7.45;6.35;;;13.00;99.90;;;;;;5066605;28;20232;-45
2021/10/03 06:23:07;;;;;;;9.10;5.82;;;13.10;99.90;;;;;;5067470;28;20426;-46
2021/10/03 06:25:34;;;;;;;6.45;5.95;;;13.30;99.90;;;;;;5079620;28;20198;-45
2021/10/03 06:28:01;;;;;;;8.40;6.50;;;13.30;99.90;;;;;;5064666;28;20230;-46
2021/10/03 06:30:29;;;;;;;8.70;5.53;;;13.10;99.90;;;;;;5078304;28;20236;-45
2021/10/03 06:32:57;;;;;;;6.60;6.00;;;12.90;99.90;;;;;;5064040;28;20219;-50
2021/10/03 06:35:24;;;;;;;6.65;5.95;;;13.00;99.90;;;;;;5073956;28;20241;-47
2021/10/03 06:37:51;;;;;;;8.00;6.22;;;12.90;99.90;;;;;;5067719;28;20195;-47
2021/10/03 06:40:19;;;;;;;6.88;5.82;;;12.80;99.90;;;;;;5065396;28;20438;-45
2021/10/03 06:42:46;;;;;;;8.65;6.35;;;12.80;99.90;;;;;;5065930;28;20479;-42
2021/10/03 06:45:13;;;;;;;9.48;6.30;;;12.90;99.90;;;;;;5061977;28;20421;-46
2021/10/03 06:47:41;;;;;;;7.85;7.10;;;13.10;99.90;;;;;;5067231;28;20433;-49
2021/10/03 06:50:09;;;;;;;10.32;7.28;;;13.20;99.90;;;;;;5065420;28;20211;-49
2021/10/03 06:52:36;;;;;;;6.05;5.45;;;13.40;99.90;;;;;;5062957;28;20219;-49
2021/10/03 06:55:05;;;;;;;6.80;6.20;;;13.60;99.90;;;;;;5062925;28;20203;-48
2021/10/03 06:57:32;;;;;;;7.57;6.82;;;13.80;99.90;;;;;;5067143;28;20195;-47
2021/10/03 07:00:01;;;;;;;10.68;5.93;;;13.70;99.90;;;;;;5074012;28;20425;-50
2021/10/03 07:02:29;;;;;;;7.22;6.57;;;13.90;99.90;;;;;;5080778;28;20256;-45
2021/10/03 07:04:57;;;;;;;11.18;6.55;;;14.20;99.90;;;;;;5069552;28;20541;-51
2021/10/03 07:07:25;;;;;;;7.07;6.20;;;14.60;99.90;;;;;;5068870;28;20238;-49
2021/10/03 07:09:51;;;;;;;8.25;7.45;;;14.90;99.90;;;;;;5071754;28;20195;-47
2021/10/03 07:12:19;;;;;;;6.90;6.30;;;15.40;99.90;;;;;;5063563;28;20233;-46
2021/10/03 07:14:46;;;;;;;7.00;6.20;;;15.70;99.90;;;;;;5069903;28;20789;-52
2021/10/03 07:17:13;;;;;;;10.20;6.00;;;15.70;99.90;;;;;;5063383;28;20435;-49
2021/10/03 07:19:41;;;;;;;9.53;7.40;;;15.80;99.90;;;;;;5076166;28;20437;-51
2021/10/03 07:22:08;;;;;;;6.83;6.17;;;16.20;99.90;;;;;;5077789;28;20457;-47
2021/10/03 07:24:36;;;;;;;6.00;5.40;;;17.30;99.90;;;;;;5074123;28;20827;-53
2021/10/03 07:27:05;;;;;;;7.93;6.20;;;18.20;99.90;;;;;;5073275;28;20449;-44
2021/10/03 07:29:33;;;;;;;6.73;6.13;;;18.90;99.90;;;;;;5072805;28;20467;-50
2021/10/03 07:32:02;;;;;;;6.60;6.00;;;19.70;99.90;;;;;;5074060;28;20480;-49
2021/10/03 07:34:29;;;;;;;6.40;5.90;;;19.20;99.90;;;;;;5066162;28;20416;-43
2021/10/03 07:36:57;;;;;;;8.50;7.60;;;19.60;99.90;;;;;;5068103;28;20760;-45
2021/10/03 07:39:24;;;;;;;7.43;6.67;;;19.00;99.90;;;;;;5069593;28;20485;-45
2021/10/03 07:41:51;;;;;;;7.17;6.57;;;18.30;99.90;;;;;;5068873;28;20777;-50
2021/10/03 07:44:18;;;;;;;8.87;7.97;;;18.00;99.90;;;;;;5076467;28;20418;-52
2021/10/03 07:46:46;;;;;;;6.53;5.97;;;18.20;99.90;;;;;;5062691;28;20498;-46
2021/10/03 07:49:14;;;;;;;11.50;7.97;;;18.70;99.90;;;;;;5068906;28;20775;-49
2021/10/03 07:51:41;;;;;;;8.00;6.83;;;19.00;99.90;;;;;;5062150;28;20423;-48
2021/10/03 07:54:08;;;;;;;7.80;7.20;;;19.30;99.90;;;;;;5062180;28;20440;-48
2021/10/03 07:56:40;;;;;;;8.07;7.37;;;19.20;99.90;;;;;;5062833;28;20407;-49
2021/10/03 07:59:07;;;;;;;7.60;6.90;;;19.40;99.90;;;;;;5065915;28;20419;-45
2021/10/03 08:01:35;;;;;;;7.43;6.83;;;19.40;99.90;;;;;;5065166;28;20596;-48
2021/10/03 08:04:03;;;;;;;7.83;7.07;;;19.80;99.90;;;;;;5071954;28;20437;-51
2021/10/03 08:06:32;;;;;;;8.80;8.10;;;20.70;99.90;;;;;;5064571;28;20441;-50
2021/10/03 08:08:59;;;;;;;8.63;7.93;;;20.40;99.90;;;;;;5061959;28;20429;-53
2021/10/03 08:11:27;;;;;;;7.53;6.93;;;20.80;99.90;;;;;;5061974;28;20675;-50
2021/10/03 08:13:54;;;;;;;7.43;6.80;;;21.30;99.90;;;;;;5064960;28;20495;-50
2021/10/03 08:16:22;;;;;;;7.80;7.20;;;22.20;99.90;;;;;;5074721;28;20477;-48
2021/10/03 08:18:49;;;;;;;7.63;6.93;;;23.90;98.20;;;;;;5070746;28;20449;-43
2021/10/03 08:21:17;;;;;;;7.70;7.10;;;23.90;96.50;;;;;;5081586;28;20504;-46
2021/10/03 08:23:44;;;;;;;8.37;7.80;;;24.60;95.80;;;;;;5067085;28;20460;-47
2021/10/03 08:26:13;;;;;;;8.60;7.80;;;24.10;95.40;;;;;;5078378;28;20435;-45
2021/10/03 08:28:41;;;;;;;7.90;7.30;;;23.60;95.80;;;;;;5065434;28;20437;-51
2021/10/03 08:31:10;;;;;;;7.97;7.27;;;23.30;96.10;;;;;;5062182;28;20444;-47
2021/10/03 08:33:38;;;;;;;8.97;8.07;;;23.30;96.90;;;;;;5061847;28;20503;-46
2021/10/03 08:36:05;;;;;;;8.30;7.63;;;23.70;96.00;;;;;;5067012;28;20417;-48
2021/10/03 08:38:33;;;;;;;8.20;7.43;;;25.00;94.80;;;;;;5061387;28;20467;-48
2021/10/03 08:41:01;;;;;;;8.53;7.20;;;25.20;92.80;;;;;;5066680;28;20436;-46
2021/10/03 08:43:32;;;;;;;7.43;6.80;;;24.30;94.60;;;;;;5080804;28;20455;-49
2021/10/03 08:46:15;;;;;;;7.23;6.70;;;24.10;94.50;;;;;;5061165;28;20445;-47
2021/10/03 08:48:43;;;;;;;7.33;6.73;;;23.60;94.80;;;;;;5067522;28;20445;-45
2021/10/03 08:51:10;;;;;;;7.90;7.20;;;23.60;94.80;;;;;;5060468;28;20415;-49
2021/10/03 08:53:38;;;;;;;8.30;7.80;;;23.50;95.60;;;;;;5072839;28;20683;-47
2021/10/03 08:56:06;;;;;;;6.80;6.27;;;23.10;95.10;;;;;;5064441;28;20785;-51
2021/10/03 08:58:33;;;;;;;7.77;7.07;;;22.40;96.40;;;;;;5071506;28;20463;-47
2021/10/03 09:01:02;;;;;;;8.30;7.70;;;22.30;96.40;;;;;;5073083;28;20433;-49
2021/10/03 09:03:30;;;;;;;7.97;7.23;;;23.00;96.10;;;;;;5074835;28;20463;-46
2021/10/03 09:05:57;;;;;;;7.60;7.00;;;23.40;94.80;;;;;;5063663;28;20407;-49
2021/10/03 09:08:42;;;;;;;7.73;7.07;;;23.00;95.20;;;;;;5069265;28;20461;-48
2021/10/03 09:11:15;;;;;;;7.10;6.50;;;23.00;95.50;;;;;;5062323;28;20432;-43
2021/10/03 09:13:49;;;;;;;8.30;7.47;;;22.50;96.00;;;;;;5069363;28;20465;-47
2021/10/03 09:16:32;;;;;;;9.47;8.00;;;21.30;97.90;;;;;;5073166;28;20430;-45
2021/10/03 09:19:09;;;;;;;8.17;7.37;;;20.50;99.40;;;;;;5067064;28;20480;-50
2021/10/03 09:21:40;;;;;;;8.20;7.50;;;20.10;99.90;;;;;;5080278;28;20517;-45
2021/10/03 09:24:20;;;;;;;11.20;7.20;;;19.90;99.90;;;;;;5067487;28;20412;-49
2021/10/03 09:27:03;;;;;;;8.03;7.23;;;20.10;99.90;;;;;;5074173;28;20440;-47
2021/10/03 09:29:33;;;;;;;9.10;8.20;;;19.90;99.90;;;;;;5080439;28;20414;-50
2021/10/03 09:32:16;;;;;;;7.37;6.80;;;19.70;99.90;;;;;;5078657;28;20454;-43
2021/10/03 09:34:50;;;;;;;7.60;7.00;;;19.50;99.90;;;;;;5070747;28;20743;-46
2021/10/03 09:37:26;;;;;;;8.67;7.97;;;19.50;99.90;;;;;;5071752;28;20589;-49
2021/10/03 09:40:02;;;;;;;8.37;7.57;;;19.60;99.90;;;;;;5071814;28;20416;-46
2021/10/03 09:42:30;;;;;;;9.13;8.00;;;19.80;99.90;;;;;;5069783;28;20664;-45
2021/10/03 09:45:04;;;;;;;8.60;7.33;;;19.70;99.90;;;;;;5073909;28;20436;-48
2021/10/03 09:47:31;;;;;;;8.03;7.27;;;19.60;99.90;;;;;;5079957;28;20482;-44
2021/10/03 09:49:59;;;;;;;8.13;7.43;;;19.50;99.90;;;;;;5072566;28;20739;-46
2021/10/03 09:52:26;;;;;;;8.97;8.17;;;19.50;99.90;;;;;;5068543;28;20450;-48
2021/10/03 09:54:55;;;;;;;9.37;8.43;;;19.50;99.90;;;;;;5071748;28;20431;-50
2021/10/03 09:57:22;;;;;;;8.70;7.80;;;19.50;99.90;;;;;;5068388;28;20411;-53
2021/10/03 09:59:50;;;;;;;10.87;7.67;;;19.60;99.90;;;;;;5071405;28;20444;-45
2021/10/03 10:02:19;;;;;;;8.10;7.37;;;19.70;99.90;;;;;;5069124;28;20488;-49
2021/10/03 10:04:47;;;;;;;8.17;7.37;;;19.60;99.90;;;;;;5080049;28;20441;-48
2021/10/03 10:07:16;;;;;;;8.27;7.70;;;19.50;99.90;;;;;;5066217;28;20811;-45
2021/10/03 10:09:46;;;;;;;8.43;7.73;;;19.50;99.90;;;;;;5067391;28;20454;-52
2021/10/03 10:12:24;;;;;;;8.80;8.03;;;19.60;99.90;;;;;;5073879;28;20455;-47
2021/10/03 10:15:01;;;;;;;9.53;8.70;;;19.60;99.90;;;;;;5077497;28;20431;-48
2021/10/03 10:17:31;;;;;;;8.50;7.80;;;19.70;99.90;;;;;;5074880;28;20406;-46
2021/10/03 10:20:00;;;;;;;8.57;7.80;;;19.80;99.90;;;;;;5074822;28;20497;-52
2021/10/03 10:22:29;;;;;;;8.73;8.10;;;19.90;99.90;;;;;;5062286;28;20479;-47
2021/10/03 10:25:16;;;;;;;10.80;9.23;;;19.90;99.90;;;;;;5057772;28;20433;-49
2021/10/03 10:27:44;;;;;;;9.03;7.83;;;20.00;99.90;;;;;;5063870;28;20418;-47
2021/10/03 10:30:16;;;;;;;7.83;7.23;;;20.20;99.90;;;;;;5081173;28;20799;-48
2021/10/03 10:32:56;;;;;;;8.40;7.60;;;20.20;99.90;;;;;;5080172;28;20450;-48
2021/10/03 10:35:28;;;;;;;8.07;7.40;;;20.20;99.90;;;;;;5079552;28;20439;-49
2021/10/03 10:38:01;;;;;;;9.30;8.40;;;20.20;99.90;;;;;;5083471;28;20418;-49
2021/10/03 10:40:32;;;;;;;8.07;7.43;;;20.40;99.90;;;;;;5081211;28;20764;-49
2021/10/03 10:43:07;;;;;;;9.27;8.30;;;20.20;99.90;;;;;;5080446;28;20456;-45
2021/10/03 10:45:35;;;;;;;8.37;7.67;;;20.20;99.90;;;;;;5082088;28;20610;-44
2021/10/03 10:48:08;;;;;;;7.90;7.30;;;20.10;99.90;;;;;;5081659;28;20419;-49
2021/10/03 10:51:19;;;;;;;6.97;6.47;;;20.20;99.90;;;;;;5079562;28;20762;-44
2021/10/03 10:53:47;;;;;;;8.63;7.93;;;20.20;99.90;;;;;;5079227;28;20537;-50
2021/10/03 10:56:24;;;;;;;7.73;7.10;;;20.20;99.90;;;;;;5064689;28;20767;-48
2021/10/03 10:58:51;;;;;;;8.53;7.17;;;20.30;99.90;;;;;;5077709;28;20466;-49
2021/10/03 11:01:35;;;;;;;8.50;7.70;;;20.20;99.90;;;;;;5071851;28;20482;-47
2021/10/03 11:04:18;;;;;;;7.57;6.97;;;20.20;99.90;;;;;;5064226;28;20448;-49
2021/10/03 11:06:48;;;;;;;7.80;7.27;;;20.30;99.90;;;;;;5068516;28;20562;-46
2021/10/03 11:09:16;;;;;;;8.57;7.70;;;20.40;99.90;;;;;;5063342;28;20424;-46
2021/10/03 11:11:52;;;;;;;7.00;6.33;;;20.50;99.90;;;;;;5069311;28;20427;-46
2021/10/03 11:14:22;;;;;;;7.47;6.83;;;20.70;99.90;;;;;;5070893;28;20505;-47
2021/10/03 11:17:00;;;;;;;9.73;8.37;;;20.70;99.90;;;;;;5064875;28;20412;-46
2021/10/03 11:19:39;;;;;;;7.87;7.27;;;20.80;99.90;;;;;;5074673;28;20418;-47
2021/10/03 11:22:13;;;;;;;9.20;8.47;;;20.90;99.90;;;;;;5063761;28;20420;-47
2021/10/03 11:24:53;;;;;;;8.60;7.70;;;21.00;99.90;;;;;;5074492;28;20800;-47
2021/10/03 11:27:22;;;;;;;7.93;7.27;;;21.00;99.90;;;;;;5068452;28;20422;-44
2021/10/03 11:29:55;;;;;;;7.53;6.77;;;20.90;99.90;;;;;;5082714;28;20438;-51
2021/10/03 11:32:34;;;;;;;9.43;8.53;;;20.90;99.90;;;;;;5063625;28;20506;-50
2021/10/03 11:35:01;;;;;;;11.40;8.30;;;20.90;99.90;;;;;;5066255;28;20638;-44
2021/10/03 11:37:40;;;;;;;7.80;7.10;;;21.10;99.90;;;;;;5068729;28;20433;-46
2021/10/03 11:40:17;;;;;;;8.07;7.37;;;21.00;99.90;;;;;;5061833;28;20404;-47
2021/10/03 11:42:49;;;;;;;7.53;6.70;;;21.00;99.90;;;;;;5077798;28;20422;-46
2021/10/03 11:45:24;;;;;;;7.63;7.03;;;21.00;99.90;;;;;;5071357;28;20397;-47
2021/10/03 11:48:06;;;;;;;8.87;7.47;;;21.00;99.90;;;;;;5072109;28;20466;-50
2021/10/03 11:50:37;;;;;;;8.90;8.10;;;20.90;99.90;;;;;;5074060;28;20601;-52
2021/10/03 11:53:27;;;;;;;7.13;6.53;;;21.00;99.90;;;;;;5079031;28;20479;-43
2021/10/03 11:56:15;;;;;;;7.63;6.93;;;21.20;99.90;;;;;;5075605;28;20800;-45
2021/10/03 11:58:44;;;;;;;7.63;6.80;;;21.30;99.90;;;;;;5078983;28;20495;-43
2021/10/03 12:01:12;;;;;;;7.87;7.37;;;21.30;99.90;;;;;;5069203;28;20884;-44
2021/10/03 12:03:51;;;;;;;7.50;6.90;;;21.30;99.90;;;;;;5061655;28;20620;-43
2021/10/03 12:06:30;;;;;;;8.67;7.60;;;21.20;99.90;;;;;;5063002;28;20484;-44
2021/10/03 12:08:58;;;;;;;8.10;7.30;;;21.20;99.90;;;;;;5071122;28;20767;-53
2021/10/03 12:11:25;;;;;;;9.93;7.50;;;21.10;99.90;;;;;;5082009;28;20650;-46
2021/10/03 12:14:00;;;;;;;6.47;6.07;;;21.20;99.90;;;;;;5077356;28;20452;-52
2021/10/03 12:16:27;;;;;;;7.33;6.73;;;21.30;99.90;;;;;;5064807;28;20793;-51
2021/10/03 12:19:03;;;;;;;7.30;6.70;;;21.20;99.90;;;;;;5070725;28;20513;-44
2021/10/03 12:21:34;;;;;;;9.13;7.70;;;21.30;99.90;;;;;;5067394;28;20437;-45
2021/10/03 12:24:05;;;;;;;6.83;6.33;;;21.30;99.90;;;;;;5073839;28;20442;-48
2021/10/03 12:26:32;;;;;;;10.40;7.37;;;21.30;99.90;;;;;;5081216;28;20478;-46
2021/10/03 12:29:06;;;;;;;8.73;8.03;;;21.30;99.90;;;;;;5081174;28;20633;-52
2021/10/03 12:31:53;;;;;;;7.83;7.00;;;21.30;99.90;;;;;;5066314;28;20459;-46
2021/10/03 12:34:21;;;;;;;7.23;6.67;;;21.30;99.90;;;;;;5068086;28;20466;-46
2021/10/03 12:37:10;;;;;;;7.90;7.30;;;21.20;99.90;;;;;;5068054;28;20610;-50
2021/10/03 12:39:44;;;;;;;8.50;7.70;;;21.10;99.90;;;;;;5074896;28;20524;-45
2021/10/03 12:42:19;;;;;;;8.43;6.73;;;21.20;99.90;;;;;;5069153;28;20464;-52
2021/10/03 12:44:49;;;;;;;8.03;7.47;;;21.30;99.90;;;;;;5067404;28;20434;-46
2021/10/03 12:47:18;;;;;;;8.50;7.90;;;21.30;99.90;;;;;;5064726;28;20462;-45
2021/10/03 12:49:46;;;;;;;8.57;7.80;;;21.30;99.90;;;;;;5072946;28;20447;-48
2021/10/03 12:52:15;;;;;;;10.03;7.27;;;21.30;99.90;;;;;;5061436;28;20499;-48
2021/10/03 12:54:44;;;;;;;10.37;8.50;;;21.30;99.90;;;;;;5078683;28;20829;-47
2021/10/03 12:57:14;;;;;;;10.27;7.93;;;21.30;99.90;;;;;;5079095;28;20433;-48